createdAt,value
2017-12-02T00:01:11.958Z,26.17
2017-12-02T00:03:38.886Z,22.87
2017-12-02T00:06:05.061Z,26.33
2017-12-02T00:08:31.956Z,25.10
2017-12-02T00:10:58.156Z,25.90
2017-12-02T00:13:24.349Z,24.23
2017-12-02T00:15:50.701Z,24.40
2017-12-02T00:18:17.028Z,26.43
2017-12-02T00:20:43.985Z,27.23
2017-12-02T00:23:10.169Z,27.33
2017-12-02T00:25:36.368Z,26.07
2017-12-02T00:28:03.290Z,28.30
2017-12-02T00:30:29.444Z,26.80
2017-12-02T00:32:56.495Z,25.17
2017-12-02T00:35:22.781Z,27.70
2017-12-02T00:37:48.953Z,27.30
2017-12-02T00:40:16.629Z,24.47
2017-12-02T00:42:43.557Z,26.10
2017-12-02T00:45:10.552Z,25.00
2017-12-02T00:47:37.452Z,26.23
2017-12-02T00:50:03.632Z,25.80
2017-12-02T00:52:29.863Z,24.60
2017-12-02T00:54:56.100Z,25.63
2017-12-02T00:57:23.033Z,26.10
2017-12-02T00:59:49.266Z,25.53
2017-12-02T01:02:16.220Z,24.73
2017-12-02T01:04:42.764Z,23.80
2017-12-02T01:07:09.128Z,24.77
2017-12-02T01:09:36.134Z,24.47
2017-12-02T01:12:02.550Z,23.57
2017-12-02T01:14:28.931Z,24.63
2017-12-02T01:16:55.215Z,26.27
2017-12-02T01:19:21.596Z,32.77
2017-12-02T01:21:48.520Z,28.30
2017-12-02T01:24:14.723Z,26.43
2017-12-02T01:26:40.971Z,27.83
2017-12-02T01:29:07.209Z,27.00
2017-12-02T01:31:33.363Z,26.17
2017-12-02T01:33:59.607Z,27.10
2017-12-02T01:36:26.624Z,26.50
2017-12-02T01:38:52.825Z,25.87
2017-12-02T01:41:19.047Z,27.43
2017-12-02T01:43:45.236Z,28.37
2017-12-02T01:46:11.400Z,26.80
2017-12-02T01:48:37.632Z,27.17
2017-12-02T01:51:03.826Z,27.47
2017-12-02T01:53:30.033Z,25.10
2017-12-02T01:55:56.945Z,25.37
2017-12-02T01:58:23.215Z,25.77
2017-12-02T02:00:49.420Z,24.23
2017-12-02T02:03:15.626Z,25.57
2017-12-02T02:05:41.788Z,24.07
2017-12-02T02:08:07.942Z,22.03
2017-12-02T02:10:34.134Z,22.33
2017-12-02T02:13:00.296Z,23.50
2017-12-02T02:15:26.454Z,23.23
2017-12-02T02:17:53.453Z,21.17
2017-12-02T02:20:19.810Z,22.13
2017-12-02T02:22:46.001Z,22.70
2017-12-02T02:25:12.181Z,23.87
2017-12-02T02:27:39.088Z,22.77
2017-12-02T02:30:05.249Z,42.10
2017-12-02T02:32:31.464Z,25.87
2017-12-02T02:34:57.630Z,24.03
2017-12-02T02:37:23.800Z,25.20
2017-12-02T02:39:49.977Z,24.30
2017-12-02T02:42:16.133Z,25.27
2017-12-02T02:44:42.298Z,26.63
2017-12-02T02:47:08.473Z,26.60
2017-12-02T02:49:34.644Z,29.73
2017-12-02T02:52:01.570Z,30.60
2017-12-02T02:54:27.753Z,30.33
2017-12-02T02:56:53.915Z,30.33
2017-12-02T02:59:20.899Z,29.37
2017-12-02T03:01:47.087Z,31.80
2017-12-02T03:04:13.254Z,27.87
2017-12-02T03:06:40.900Z,31.77
2017-12-02T03:09:07.085Z,30.90
2017-12-02T03:11:33.988Z,33.13
2017-12-02T03:14:00.152Z,31.33
2017-12-02T03:16:26.314Z,30.07
2017-12-02T03:18:53.452Z,29.60
2017-12-02T03:21:20.457Z,31.80
2017-12-02T03:23:46.629Z,32.93
2017-12-02T03:26:13.536Z,30.00
2017-12-02T03:28:39.725Z,30.70
2017-12-02T03:31:06.638Z,31.70
2017-12-02T03:33:32.817Z,30.67
2017-12-02T03:35:59.021Z,29.17
2017-12-02T03:38:25.974Z,28.97
2017-12-02T03:40:52.904Z,27.20
2017-12-02T03:43:19.077Z,26.93
2017-12-02T03:45:46.000Z,25.07
2017-12-02T03:48:12.172Z,24.77
2017-12-02T03:50:38.341Z,24.03
2017-12-02T03:53:04.521Z,24.80
2017-12-02T03:55:30.739Z,25.97
2017-12-02T03:57:56.885Z,24.23
2017-12-02T04:00:23.814Z,24.63
2017-12-02T04:02:49.988Z,22.67
2017-12-02T04:05:16.181Z,22.33
2017-12-02T04:07:42.377Z,24.00
2017-12-02T04:10:08.533Z,23.57
2017-12-02T04:12:34.707Z,23.37
2017-12-02T04:15:01.637Z,25.70
2017-12-02T04:17:27.805Z,23.40
2017-12-02T04:19:54.960Z,24.70
2017-12-02T04:22:24.857Z,22.90
2017-12-02T04:24:51.769Z,23.60
2017-12-02T04:27:18.690Z,22.23
2017-12-02T04:29:45.401Z,23.20
2017-12-02T04:32:12.360Z,21.63
2017-12-02T04:34:39.264Z,21.30
2017-12-02T04:37:05.425Z,21.90
2017-12-02T04:39:32.344Z,22.07
2017-12-02T04:41:58.560Z,20.87
2017-12-02T04:44:24.735Z,21.10
2017-12-02T04:46:50.886Z,20.23
2017-12-02T04:49:17.776Z,20.73
2017-12-02T04:51:44.017Z,20.80
2017-12-02T04:54:10.201Z,20.13
2017-12-02T04:56:37.128Z,19.75
2017-12-02T04:59:03.297Z,20.47
2017-12-02T05:01:30.218Z,18.93
2017-12-02T05:03:56.396Z,20.80
2017-12-02T05:06:22.597Z,20.80
2017-12-02T05:08:49.521Z,20.13
2017-12-02T05:11:15.705Z,20.90
2017-12-02T05:13:42.613Z,18.33
2017-12-02T05:16:08.776Z,20.95
2017-12-02T05:18:35.692Z,20.58
2017-12-02T05:21:06.109Z,20.27
2017-12-02T05:23:33.349Z,20.70
2017-12-02T05:25:59.592Z,19.80
2017-12-02T05:28:25.822Z,20.80
2017-12-02T05:30:52.012Z,19.50
2017-12-02T05:33:18.921Z,20.03
2017-12-02T05:35:45.383Z,20.50
2017-12-02T05:38:13.068Z,21.20
2017-12-02T05:40:40.017Z,21.10
2017-12-02T05:43:07.133Z,19.10
2017-12-02T05:45:33.298Z,20.70
2017-12-02T05:47:59.456Z,20.20
2017-12-02T05:50:26.360Z,20.77
2017-12-02T05:52:52.527Z,21.13
2017-12-02T05:55:19.429Z,19.57
2017-12-02T05:57:45.599Z,21.40
2017-12-02T06:00:12.512Z,22.23
2017-12-02T06:02:38.689Z,22.00
2017-12-02T06:05:06.421Z,20.98
2017-12-02T06:07:32.602Z,19.90
2017-12-02T06:09:59.596Z,20.08
2017-12-02T06:12:25.885Z,19.77
2017-12-02T06:14:52.789Z,19.52
2017-12-02T06:17:19.016Z,19.47
2017-12-02T06:19:46.074Z,21.12
2017-12-02T06:22:12.320Z,21.10
2017-12-02T06:24:38.678Z,20.15
2017-12-02T06:27:05.622Z,20.20
2017-12-02T06:29:31.780Z,19.95
2017-12-02T06:31:57.976Z,20.12
2017-12-02T06:34:24.156Z,19.47
2017-12-02T06:36:50.332Z,21.65
2017-12-02T06:39:16.505Z,20.23
2017-12-02T06:41:42.689Z,20.95
2017-12-02T06:44:08.866Z,20.92
2017-12-02T06:46:35.799Z,21.80
2017-12-02T06:49:01.996Z,22.10
2017-12-02T06:51:28.195Z,22.17
2017-12-02T06:53:55.101Z,21.17
2017-12-02T06:56:21.306Z,23.25
2017-12-02T06:58:47.533Z,21.92
2017-12-02T07:01:13.730Z,22.05
2017-12-02T07:03:39.931Z,21.25
2017-12-02T07:06:06.133Z,21.90
2017-12-02T07:08:32.320Z,20.55
2017-12-02T07:10:58.532Z,21.92
2017-12-02T07:13:24.718Z,21.08
2017-12-02T07:15:50.911Z,22.10
2017-12-02T07:18:18.697Z,20.25
2017-12-02T07:20:44.868Z,21.40
2017-12-02T07:23:11.205Z,20.08
2017-12-02T07:25:37.626Z,23.08
2017-12-02T07:28:04.554Z,21.02
2017-12-02T07:30:31.484Z,22.02
2017-12-02T07:32:57.717Z,20.48
2017-12-02T07:35:23.900Z,21.67
2017-12-02T07:37:50.098Z,21.00
2017-12-02T07:40:16.300Z,21.35
2017-12-02T07:42:42.517Z,21.98
2017-12-02T07:45:08.688Z,19.67
2017-12-02T07:47:34.909Z,21.67
2017-12-02T07:50:01.083Z,22.50
2017-12-02T07:52:28.008Z,23.55
2017-12-02T07:54:54.206Z,23.65
2017-12-02T07:57:20.379Z,21.05
2017-12-02T07:59:46.697Z,21.02
2017-12-02T08:02:13.692Z,22.17
2017-12-02T08:04:39.855Z,22.40
2017-12-02T08:07:06.057Z,21.33
2017-12-02T08:09:33.103Z,21.15
2017-12-02T08:11:59.289Z,21.55
2017-12-02T08:14:25.529Z,20.92
2017-12-02T08:16:51.705Z,22.90
2017-12-02T08:19:17.932Z,25.40
2017-12-02T08:21:44.121Z,24.92
2017-12-02T08:24:10.448Z,23.98
2017-12-02T08:26:36.802Z,27.08
2017-12-02T08:29:03.001Z,24.95
2017-12-02T08:31:29.185Z,23.70
2017-12-02T08:33:55.361Z,24.37
2017-12-02T08:36:21.590Z,26.25
2017-12-02T08:38:48.597Z,24.70
2017-12-02T08:41:14.781Z,24.58
2017-12-02T08:43:41.722Z,25.50
2017-12-02T08:46:07.935Z,23.23
2017-12-02T08:48:34.183Z,23.17
2017-12-02T08:51:00.385Z,22.60
2017-12-02T08:53:26.581Z,19.75
2017-12-02T08:55:53.489Z,22.10
2017-12-02T08:58:19.660Z,20.03
2017-12-02T09:00:45.843Z,20.77
2017-12-02T09:03:12.034Z,20.73
2017-12-02T09:05:38.364Z,21.23
2017-12-02T09:08:05.311Z,24.30
2017-12-02T09:10:31.504Z,23.15
2017-12-02T09:12:57.713Z,24.00
2017-12-02T09:15:23.936Z,23.67
2017-12-02T09:17:50.135Z,25.25
2017-12-02T09:20:17.084Z,26.95
2017-12-02T09:22:43.326Z,28.08
2017-12-02T09:25:09.609Z,26.08
2017-12-02T09:27:36.028Z,25.40
2017-12-02T09:30:02.269Z,28.85
2017-12-02T09:32:28.493Z,28.33
2017-12-02T09:34:54.708Z,30.15
2017-12-02T09:37:21.678Z,26.52
2017-12-02T09:39:47.900Z,28.83
2017-12-02T09:42:14.145Z,28.52
2017-12-02T09:44:40.332Z,27.85
2017-12-02T09:47:06.549Z,27.42
2017-12-02T09:49:33.540Z,27.67
2017-12-02T09:52:00.477Z,27.87
2017-12-02T09:54:26.645Z,26.90
2017-12-02T09:56:52.824Z,26.85
2017-12-02T09:59:19.057Z,25.20
2017-12-02T10:01:45.228Z,24.75
2017-12-02T10:04:11.411Z,25.70
2017-12-02T10:06:37.638Z,23.10
2017-12-02T10:09:03.796Z,25.90
2017-12-02T10:11:29.972Z,25.48
2017-12-02T10:13:56.133Z,24.73
2017-12-02T10:16:22.308Z,26.65
2017-12-02T10:18:48.469Z,24.30
2017-12-02T10:21:15.391Z,22.60
2017-12-02T10:23:41.553Z,23.42
2017-12-02T10:26:08.799Z,22.37
2017-12-02T10:28:35.198Z,22.30
2017-12-02T10:31:01.381Z,23.67
2017-12-02T10:33:28.289Z,23.25
2017-12-02T10:35:54.464Z,23.45
2017-12-02T10:38:21.412Z,23.55
2017-12-02T10:40:47.703Z,25.27
2017-12-02T10:43:14.070Z,23.98
2017-12-02T10:45:41.005Z,23.30
2017-12-02T10:48:07.273Z,26.00
2017-12-02T10:50:33.644Z,24.80
2017-12-02T10:52:59.939Z,23.85
2017-12-02T10:55:26.901Z,23.27
2017-12-02T10:57:53.149Z,21.15
2017-12-02T11:00:19.503Z,23.23
2017-12-02T11:02:45.832Z,25.23
2017-12-02T11:05:12.043Z,23.77
2017-12-02T11:07:38.266Z,25.17
2017-12-02T11:10:05.191Z,23.05
2017-12-02T11:12:31.394Z,25.80
2017-12-02T11:14:57.588Z,26.70
2017-12-02T11:17:24.504Z,24.70
2017-12-02T11:19:50.737Z,24.70
2017-12-02T11:22:16.957Z,25.77
2017-12-02T11:24:43.176Z,25.23
2017-12-02T11:27:09.681Z,26.05
2017-12-02T11:29:36.154Z,24.27
2017-12-02T11:32:02.325Z,25.35
2017-12-02T11:34:28.557Z,24.60
2017-12-02T11:36:55.520Z,25.40
2017-12-02T11:39:23.205Z,25.65
2017-12-02T11:41:49.392Z,24.92
2017-12-02T11:44:15.635Z,24.13
2017-12-02T11:46:41.868Z,25.62
2017-12-02T11:49:08.092Z,25.85
2017-12-02T11:51:35.092Z,26.33
2017-12-02T11:54:01.389Z,25.25
2017-12-02T11:56:28.562Z,25.52
2017-12-02T11:58:54.834Z,25.80
2017-12-02T12:01:21.849Z,25.37
2017-12-02T12:03:48.876Z,24.92
2017-12-02T12:06:15.108Z,25.60
2017-12-02T12:08:41.297Z,24.00
2017-12-02T12:11:09.141Z,24.98
2017-12-02T12:13:35.417Z,24.45
2017-12-02T12:16:01.631Z,24.90
2017-12-02T12:18:27.910Z,25.88
2017-12-02T12:20:54.140Z,23.62
2017-12-02T12:23:20.348Z,23.55
2017-12-02T12:25:48.208Z,22.25
2017-12-02T12:28:15.237Z,25.00
2017-12-02T12:30:41.538Z,27.83
2017-12-02T12:33:07.824Z,25.17
2017-12-02T12:35:34.179Z,25.55
2017-12-02T12:38:00.393Z,25.50
2017-12-02T12:40:26.569Z,25.77
2017-12-02T12:42:52.777Z,25.83
2017-12-02T12:45:19.694Z,25.67
2017-12-02T12:47:45.913Z,25.05
2017-12-02T12:50:12.105Z,25.42
2017-12-02T12:52:38.313Z,25.67
2017-12-02T12:55:04.533Z,24.73
2017-12-02T12:57:30.725Z,26.75
2017-12-02T12:59:56.916Z,27.67
2017-12-02T13:02:25.083Z,29.60
2017-12-02T13:04:51.328Z,32.33
2017-12-02T13:07:18.281Z,24.90
2017-12-02T13:09:45.425Z,26.80
2017-12-02T13:12:12.387Z,27.92
2017-12-02T13:14:38.657Z,27.75
2017-12-02T13:17:04.876Z,29.42
2017-12-02T13:19:32.542Z,30.70
2017-12-02T13:21:59.817Z,25.70
2017-12-02T13:24:26.773Z,28.38
2017-12-02T13:26:52.953Z,26.40
2017-12-02T13:29:19.205Z,25.98
2017-12-02T13:31:45.756Z,25.83
2017-12-02T13:34:18.889Z,26.00
2017-12-02T13:36:45.118Z,26.17
2017-12-02T13:39:11.371Z,25.60
2017-12-02T13:41:37.912Z,26.55
2017-12-02T13:47:21.739Z,24.30
2017-12-02T13:49:47.944Z,25.45
2017-12-02T13:52:14.869Z,24.75
2017-12-02T13:54:41.077Z,23.42
2017-12-02T13:57:07.269Z,24.33
2017-12-02T13:59:34.179Z,26.33
2017-12-02T14:02:01.576Z,24.48
2017-12-02T14:04:27.845Z,26.10
2017-12-02T14:06:54.019Z,24.60
2017-12-02T14:09:20.509Z,25.02
2017-12-02T14:11:46.669Z,25.73
2017-12-02T14:14:12.835Z,29.10
2017-12-02T14:16:39.769Z,27.35
2017-12-02T14:19:05.934Z,25.58
2017-12-02T14:21:32.853Z,26.00
2017-12-02T14:23:59.037Z,25.52
2017-12-02T14:26:25.221Z,25.73
2017-12-02T14:28:51.392Z,26.33
2017-12-02T14:31:18.565Z,26.12
2017-12-02T14:33:44.844Z,25.17
2017-12-02T14:36:11.005Z,23.98
2017-12-02T14:38:37.965Z,25.88
2017-12-02T14:41:04.183Z,23.77
2017-12-02T14:43:30.459Z,23.23
2017-12-02T14:45:56.721Z,27.27
2017-12-02T14:48:22.961Z,24.75
2017-12-02T14:50:49.942Z,22.20
2017-12-02T14:53:17.093Z,23.35
2017-12-02T14:55:44.094Z,25.00
2017-12-02T14:58:10.363Z,26.70
2017-12-02T15:00:38.163Z,26.65
2017-12-02T15:03:04.609Z,24.08
2017-12-02T15:05:30.849Z,27.73
2017-12-02T15:07:57.101Z,22.67
2017-12-02T15:10:23.327Z,24.55
2017-12-02T15:12:49.522Z,23.80
2017-12-02T15:15:15.732Z,22.95
2017-12-02T15:17:41.911Z,23.15
2017-12-02T15:20:08.817Z,21.20
2017-12-02T15:22:34.997Z,22.05
2017-12-02T15:25:01.905Z,21.92
2017-12-02T15:27:28.112Z,22.10
2017-12-02T15:29:54.354Z,22.42
2017-12-02T15:32:20.577Z,22.45
2017-12-02T15:34:46.994Z,22.15
2017-12-02T15:37:13.193Z,21.50
2017-12-02T15:39:39.406Z,21.92
2017-12-02T15:42:05.593Z,21.27
2017-12-02T15:44:31.805Z,22.10
2017-12-02T15:46:58.733Z,25.20
2017-12-02T15:49:24.912Z,20.77
2017-12-02T15:51:51.869Z,23.10
2017-12-02T15:54:18.070Z,23.87
2017-12-02T15:56:44.309Z,21.25
2017-12-02T15:59:11.276Z,23.35
2017-12-02T16:01:38.221Z,22.23
2017-12-02T16:04:05.205Z,22.70
2017-12-02T16:06:31.465Z,23.00
2017-12-02T16:08:58.435Z,20.50
2017-12-02T16:11:24.648Z,21.75
2017-12-02T16:13:50.837Z,22.15
2017-12-02T16:16:17.793Z,21.17
2017-12-02T16:18:44.046Z,23.05
2017-12-02T16:21:10.255Z,21.98
2017-12-02T16:23:36.505Z,23.08
2017-12-02T16:26:02.681Z,22.65
2017-12-02T16:28:28.886Z,22.62
2017-12-02T16:30:55.078Z,23.77
2017-12-02T16:33:22.074Z,20.90
2017-12-02T16:35:48.485Z,20.67
2017-12-02T16:38:15.397Z,22.30
2017-12-02T16:40:41.624Z,19.80
2017-12-02T16:43:07.846Z,20.75
2017-12-02T16:45:34.022Z,20.17
2017-12-02T16:48:00.962Z,21.65
2017-12-02T16:50:27.977Z,20.48
2017-12-02T16:53:01.202Z,21.75
2017-12-02T16:55:27.422Z,21.45
2017-12-02T16:57:53.629Z,24.20
2017-12-02T17:00:19.814Z,21.67
2017-12-02T17:02:46.797Z,22.42
2017-12-02T17:05:13.004Z,24.25
2017-12-02T17:07:40.053Z,23.48
2017-12-02T17:10:06.245Z,22.08
2017-12-02T17:12:32.461Z,24.63
2017-12-02T17:14:58.667Z,23.15
2017-12-02T17:17:24.885Z,23.10
2017-12-02T17:19:51.073Z,25.02
2017-12-02T17:22:17.253Z,24.67
2017-12-02T17:24:44.186Z,24.83
2017-12-02T17:27:10.369Z,22.42
2017-12-02T17:29:36.549Z,23.60
2017-12-02T17:32:02.760Z,27.80
2017-12-02T17:34:29.009Z,24.27
2017-12-02T17:36:55.229Z,23.77
2017-12-02T17:39:21.447Z,23.02
2017-12-02T17:41:47.665Z,23.58
2017-12-02T17:44:13.888Z,26.12
2017-12-02T17:46:40.115Z,24.75
2017-12-02T17:49:06.306Z,23.42
2017-12-02T17:51:32.548Z,24.50
2017-12-02T17:53:58.757Z,25.20
2017-12-02T17:56:24.950Z,25.77
2017-12-02T17:58:51.900Z,25.05
2017-12-02T18:01:18.856Z,22.60
2017-12-02T18:03:45.792Z,25.67
2017-12-02T18:06:13.568Z,22.87
2017-12-02T18:08:40.544Z,23.62
2017-12-02T18:11:07.452Z,22.92
2017-12-02T18:13:33.626Z,23.90
2017-12-02T18:16:00.219Z,21.65
2017-12-02T18:18:26.412Z,22.30
2017-12-02T18:20:52.594Z,22.23
2017-12-02T18:23:20.313Z,21.08
2017-12-02T18:25:46.487Z,23.27
2017-12-02T18:28:12.684Z,21.80
2017-12-02T18:30:38.907Z,23.15
2017-12-02T18:33:05.096Z,23.73
2017-12-02T18:35:32.114Z,21.35
2017-12-02T18:37:58.513Z,21.17
2017-12-02T18:40:25.436Z,20.65
2017-12-02T18:42:51.629Z,20.58
2017-12-02T18:45:17.825Z,19.90
2017-12-02T18:47:44.048Z,18.73
2017-12-02T18:50:10.253Z,19.67
2017-12-02T18:52:36.593Z,17.95
2017-12-02T18:55:02.776Z,18.52
2017-12-02T18:57:29.704Z,19.52
2017-12-02T18:59:56.781Z,20.75
2017-12-02T19:02:23.029Z,19.87
2017-12-02T19:04:49.961Z,21.77
2017-12-02T19:07:17.025Z,21.58
2017-12-02T19:09:43.954Z,21.80
2017-12-02T19:12:10.898Z,20.02
2017-12-02T19:14:37.086Z,22.37
2017-12-02T19:17:03.275Z,20.67
2017-12-02T19:19:29.441Z,21.50
2017-12-02T19:21:55.640Z,22.33
2017-12-02T19:24:21.808Z,19.85
2017-12-02T19:26:48.753Z,21.75
2017-12-02T19:29:15.785Z,21.83
2017-12-02T19:31:42.729Z,20.62
2017-12-02T19:34:08.937Z,24.52
2017-12-02T19:36:35.283Z,23.05
2017-12-02T19:39:01.660Z,23.77
2017-12-02T19:41:28.597Z,22.90
2017-12-02T19:43:54.777Z,22.35
2017-12-02T19:46:20.977Z,22.55
2017-12-02T19:48:47.178Z,23.05
2017-12-02T19:51:15.141Z,22.77
2017-12-02T19:53:41.304Z,20.95
2017-12-02T19:56:07.529Z,21.67
2017-12-02T19:58:35.273Z,21.70
2017-12-02T20:01:01.471Z,25.42
2017-12-02T20:03:27.649Z,22.17
2017-12-02T20:05:53.870Z,22.35
2017-12-02T20:08:20.064Z,24.73
2017-12-02T20:10:47.001Z,26.33
2017-12-02T20:13:14.082Z,24.55
2017-12-02T20:15:40.292Z,25.23
2017-12-02T20:18:06.522Z,26.55
2017-12-02T20:20:32.703Z,24.52
2017-12-02T20:22:58.893Z,25.60
2017-12-02T20:25:25.837Z,26.30
2017-12-02T20:27:52.764Z,24.65
2017-12-02T20:30:18.926Z,25.85
2017-12-02T20:32:45.914Z,26.17
2017-12-02T20:35:12.109Z,24.98
2017-12-02T20:37:38.382Z,26.40
2017-12-02T20:40:04.778Z,27.77
2017-12-02T20:42:30.962Z,26.17
2017-12-02T20:44:57.168Z,27.77
2017-12-02T20:47:24.129Z,28.08
2017-12-02T20:49:50.308Z,28.55
2017-12-02T20:52:16.531Z,25.92
2017-12-02T20:54:42.708Z,27.25
2017-12-02T20:57:10.529Z,27.55
2017-12-02T20:59:36.718Z,26.92
2017-12-02T21:02:04.437Z,30.48
2017-12-02T21:04:31.502Z,31.00
2017-12-02T21:06:57.758Z,26.65
2017-12-02T21:09:23.916Z,33.60
2017-12-02T21:11:50.869Z,30.35
2017-12-02T21:14:17.074Z,31.67
2017-12-02T21:16:44.025Z,29.60
2017-12-02T21:19:11.169Z,28.45
2017-12-02T21:21:37.366Z,31.12
2017-12-02T21:24:03.541Z,30.98
2017-12-02T21:26:29.720Z,29.15
2017-12-02T21:28:55.952Z,31.25
2017-12-02T21:31:22.112Z,29.67
2017-12-02T21:33:48.458Z,30.65
2017-12-02T21:36:14.705Z,29.63
2017-12-02T21:38:41.063Z,27.87
2017-12-02T21:41:07.536Z,27.98
2017-12-02T21:43:33.804Z,28.83
2017-12-02T21:46:00.918Z,29.45
2017-12-02T21:48:27.145Z,29.45
2017-12-02T21:50:53.313Z,29.48
2017-12-02T21:53:19.509Z,31.55
2017-12-02T21:55:46.829Z,29.48
2017-12-02T21:58:21.487Z,27.83
2017-12-02T22:00:49.505Z,30.08
2017-12-02T22:03:15.822Z,29.58
2017-12-02T22:05:43.644Z,32.67
2017-12-02T22:08:10.027Z,29.52
2017-12-02T22:10:36.375Z,30.48
2017-12-02T22:13:03.513Z,29.52
2017-12-02T22:15:30.531Z,28.85
2017-12-02T22:17:57.605Z,29.27
2017-12-02T22:20:24.301Z,28.58
2017-12-02T22:22:50.700Z,30.20
2017-12-02T22:25:17.729Z,29.73
2017-12-02T22:27:44.925Z,29.60
2017-12-02T22:30:12.031Z,27.25
2017-12-02T22:32:38.413Z,27.87
2017-12-02T22:35:04.669Z,27.05
2017-12-02T22:37:31.741Z,26.60
2017-12-02T22:39:57.993Z,29.50
2017-12-02T22:42:24.325Z,28.02
2017-12-02T22:44:50.720Z,27.75
2017-12-02T22:47:16.941Z,29.33
2017-12-02T22:49:43.866Z,25.55
2017-12-02T22:52:11.901Z,27.85
2017-12-02T22:54:38.095Z,28.98
2017-12-02T22:59:45.463Z,28.23
2017-12-02T23:02:11.634Z,27.45
2017-12-02T23:04:38.588Z,28.58
2017-12-02T23:07:05.630Z,29.25
2017-12-02T23:09:31.933Z,29.42
2017-12-02T23:11:58.924Z,28.70
2017-12-02T23:14:27.569Z,27.62
2017-12-02T23:16:53.741Z,28.45
2017-12-02T23:19:20.653Z,29.25
2017-12-02T23:21:47.642Z,30.95
2017-12-02T23:24:14.575Z,29.73
2017-12-02T23:26:40.754Z,30.05
2017-12-02T23:29:06.952Z,29.10
2017-12-02T23:31:33.882Z,29.25
2017-12-02T23:34:00.057Z,31.58
2017-12-02T23:36:26.271Z,29.12
2017-12-02T23:38:53.203Z,28.75
2017-12-02T23:41:19.478Z,28.92
2017-12-02T23:43:48.462Z,29.20
2017-12-02T23:46:15.381Z,31.02
2017-12-02T23:48:41.614Z,31.17
2017-12-02T23:51:07.801Z,33.97
2017-12-02T23:53:34.005Z,31.60
2017-12-02T23:56:00.177Z,30.90
2017-12-02T23:58:26.352Z,29.23
